Details From EPWA - Warsaw Okecie - Frederic Chopin
To UDYZ - Zvartnots
Flight Number -
Tags Generated
Created
Modified
Stats Distance 1,204 nm / 2,230 km
Max Altitude 0 ft / 0 m
Waypoints 6
Social Downloads 0
Likes 0
Share VATSIM

Download

Looking for another format? Having issues loading an existing format? Contact us
Advertisement - Login to hide

Notes

Generated

Route

EPWA BABIS BAROR PALER ZVR12 UDYZ

ID Type Via Altitude Latitude Longitude Leg Dist Tot Dist Heading (true) Name
O EPWA APT - 0 ft / 0 m 52.17148˚ 20.94671˚ - 0 nm - -
BABIS FIX - 0 ft / 0 m 49.99803˚ 26.35626˚ 242 nm 242 nm 120° / 125° -
BAROR FIX - 0 ft / 0 m 47.62808˚ 31.84500˚ 259 nm 501 nm 121° / 125° -
PALER FIX - 0 ft / 0 m 45.15310˚ 36.54346˚ 244 nm 746 nm 126° / 129° -
ZVR12 FIX - 0 ft / 0 m 40.23667˚ 44.26000˚ 450 nm 1196 nm 128° / 133° -
O UDYZ APT - 0 ft / 0 m 40.14715˚ 44.37329˚ 7 nm 1204 nm 136° / 136° -

Altitude Profile

Advertisement - Login to hide

Weather


0- 5 10 15 20 25 30 35+ Temperature / ° C

Clouds and Precipitation
Forecast for 2018-05-26 18:00 UTC. Updated 5 hours ago

Ground ~20,000 ft ~40,000 ft Winds

EPWA

Details ICAO EPWA (WAW)
Name WARSZAWA Okecie
Region Poland
Timezone Europe/Warsaw (UTC+2.0)
Stats Elevation 328 ft / 100 m (AMSL)
Location 52.165091° 20.966923°
Runways 2
Magnetic Variation 5.859° E

METAR

EPWA 262200Z VRB02KT CAVOK 15/15 Q1023 NOSIG

Decode

TAF

TAF EPWA 262030Z 2621/2721 09005KT CAVOK BECMG 2622/2624 4000 BR PROB40 2700/2704 2000 BR BKN007 BECMG 2704/2706 9999

Decode

Departure Runways

ID Width Length Bearing (true) Bearing (mag) Surface Threshold Offset Overrun Length
11 164 ft / 50 m 9,163 ft / 2,793 m 114.64° 108.78° Asphalt 0 ft / 0 m 476 ft / 145 m
15 197 ft / 60 m 12,112 ft / 3,692 m 151.85° 145.99° Asphalt 0 ft / 0 m 0 ft / 0 m
29 164 ft / 50 m 9,163 ft / 2,793 m 294.67° 288.81° Asphalt 1,608 ft / 490 m 0 ft / 0 m
33 197 ft / 60 m 12,112 ft / 3,692 m 331.87° 326.01° Asphalt 0 ft / 0 m 0 ft / 0 m

UDYZ

Details ICAO UDYZ (EVN)
Name ZVARTNOTS
Region Armenia
Timezone Asia/Yerevan (UTC+4.0)
Stats Elevation 2,838 ft / 865 m (AMSL)
Location 40.147271° 44.395880°
Runways 1
Magnetic Variation 6.235° E

METAR

UDYZ 262200Z VRB02KT 9999 SCT040CB 15/12 Q1018 R09/010070 NOSIG

Decode

TAF

TAF AMD UDYZ 261855Z 2619/2718 04006KT 9999 BKN040 TEMPO 2619/2706 VRB26G36KT 3500 TSRA BR BKN020CB TEMPO 2706/2718 VRB16KT SCT030CB

Decode

Destination Runways

ID Width Length Bearing (true) Bearing (mag) Surface Threshold Offset Overrun Length
09 184 ft / 56 m 12,601 ft / 3,841 m 89.59° 83.36° Asphalt 0 ft / 0 m 0 ft / 0 m
27 184 ft / 56 m 12,601 ft / 3,841 m 269.62° 263.39° Asphalt 0 ft / 0 m 0 ft / 0 m

Approach Navaids

Runway Type Ident Frequency Range Bearing (true) Bearing (mag) Slope Elevation
09 Localiser IZR 108.10 MHz 18 nm / 33 km 89.83° 83.60° - 2,838 ft / 865 m (AMSL)
09 Glidescope IZR 108.10 MHz 10 nm / 19 km 89.61° 83.37° 2.67° 2,838 ft / 865 m (AMSL)

Popular Alternatives